sensor_id;sensor_type;location;lat;lon;timestamp;pressure;altitude;pressure_sealevel;temperature;humidity
52319;BME280;38258;51.148;14.068;2022-12-07T00:01:24;97929.34;;;-1.15;100.00
52319;BME280;38258;51.148;14.068;2022-12-07T00:03:53;98029.22;;;-0.61;100.00
52319;BME280;38258;51.148;14.068;2022-12-07T00:06:22;97917.28;;;-1.23;100.00
52319;BME280;38258;51.148;14.068;2022-12-07T00:08:49;98013.84;;;-0.58;100.00
52319;BME280;38258;51.148;14.068;2022-12-07T00:11:18;97941.41;;;-1.07;100.00
52319;BME280;38258;51.148;14.068;2022-12-07T00:13:46;98011.97;;;-0.71;100.00
52319;BME280;38258;51.148;14.068;2022-12-07T00:16:15;97960.34;;;-0.96;100.00
52319;BME280;38258;51.148;14.068;2022-12-07T00:18:43;97972.41;;;-0.90;100.00
52319;BME280;38258;51.148;14.068;2022-12-07T00:21:14;97932.72;;;-1.20;100.00
52319;BME280;38258;51.148;14.068;2022-12-07T00:23:42;97987.88;;;-0.82;100.00
52319;BME280;38258;51.148;14.068;2022-12-07T00:26:10;97974.13;;;-0.89;100.00
52319;BME280;38258;51.148;14.068;2022-12-07T00:28:38;97947.44;;;-1.01;100.00
52319;BME280;38258;51.148;14.068;2022-12-07T00:31:08;97993.09;;;-0.75;100.00
52319;BME280;38258;51.148;14.068;2022-12-07T00:33:36;97864.00;;;-1.48;100.00
52319;BME280;38258;51.148;14.068;2022-12-07T00:36:06;97951.78;;;-0.98;100.00
52319;BME280;38258;51.148;14.068;2022-12-07T00:38:36;97875.28;;;-1.33;100.00
52319;BME280;38258;51.148;14.068;2022-12-07T00:41:04;98006.06;;;-0.64;100.00
52319;BME280;38258;51.148;14.068;2022-12-07T00:43:33;97972.47;;;-0.84;100.00
52319;BME280;38258;51.148;14.068;2022-12-07T00:46:00;97996.59;;;-0.68;100.00
52319;BME280;38258;51.148;14.068;2022-12-07T00:48:27;97853.66;;;-1.54;100.00
52319;BME280;38258;51.148;14.068;2022-12-07T00:50:53;98000.94;;;-0.62;100.00
52319;BME280;38258;51.148;14.068;2022-12-07T00:53:20;97946.75;;;-0.89;100.00
52319;BME280;38258;51.148;14.068;2022-12-07T00:55:49;97855.50;;;-1.42;100.00
52319;BME280;38258;51.148;14.068;2022-12-07T00:58:15;97864.06;;;-1.38;100.00
52319;BME280;38258;51.148;14.068;2022-12-07T01:00:43;97922.50;;;-1.16;100.00
52319;BME280;38258;51.148;14.068;2022-12-07T01:03:12;97898.50;;;-1.21;100.00
52319;BME280;38258;51.148;14.068;2022-12-07T01:05:39;97874.38;;;-1.37;100.00
52319;BME280;38258;51.148;14.068;2022-12-07T01:08:06;97985.47;;;-0.68;100.00
52319;BME280;38258;51.148;14.068;2022-12-07T01:10:33;97941.47;;;-1.01;100.00
52319;BME280;38258;51.148;14.068;2022-12-07T01:13:01;97931.19;;;-1.04;100.00
52319;BME280;38258;51.148;14.068;2022-12-07T01:15:28;97894.19;;;-1.23;100.00
52319;BME280;38258;51.148;14.068;2022-12-07T01:17:54;97998.31;;;-0.67;100.00
52319;BME280;38258;51.148;14.068;2022-12-07T01:20:21;97865.78;;;-1.37;100.00
52319;BME280;38258;51.148;14.068;2022-12-07T01:22:48;97942.28;;;-1.05;100.00
52319;BME280;38258;51.148;14.068;2022-12-07T01:25:15;97928.53;;;-1.12;100.00
52319;BME280;38258;51.148;14.068;2022-12-07T01:27:42;97913.84;;;-1.24;100.00
52319;BME280;38258;51.148;14.068;2022-12-07T01:30:12;97986.38;;;-0.63;100.00
52319;BME280;38258;51.148;14.068;2022-12-07T01:32:39;97916.63;;;-1.05;100.00
52319;BME280;38258;51.148;14.068;2022-12-07T01:35:06;97928.69;;;-0.95;100.00
52319;BME280;38258;51.148;14.068;2022-12-07T01:37:34;97993.22;;;-0.62;100.00
52319;BME280;38258;51.148;14.068;2022-12-07T01:40:03;97969.13;;;-0.78;100.00
52319;BME280;38258;51.148;14.068;2022-12-07T01:42:30;97888.06;;;-1.35;100.00
52319;BME280;38258;51.148;14.068;2022-12-07T01:48:13;97978.63;;;-0.65;100.00
52319;BME280;38258;51.148;14.068;2022-12-07T01:50:43;97920.00;;;-1.08;100.00
52319;BME280;38258;51.148;14.068;2022-12-07T01:53:11;97931.97;;;-1.10;100.00
52319;BME280;38258;51.148;14.068;2022-12-07T01:55:42;97934.69;;;-0.97;100.00
52319;BME280;38258;51.148;14.068;2022-12-07T01:58:11;97846.75;;;-1.61;100.00
52319;BME280;38258;51.148;14.068;2022-12-07T02:00:39;97836.47;;;-1.61;100.00
52319;BME280;38258;51.148;14.068;2022-12-07T02:03:11;97945.84;;;-0.92;100.00
52319;BME280;38258;51.148;14.068;2022-12-07T02:05:41;97973.41;;;-0.77;100.00
52319;BME280;38258;51.148;14.068;2022-12-07T02:08:10;97986.34;;;-0.65;100.00
52319;BME280;38258;51.148;14.068;2022-12-07T02:10:38;97992.31;;;-0.66;100.00
52319;BME280;38258;51.148;14.068;2022-12-07T02:13:08;97983.78;;;-0.65;100.00
52319;BME280;38258;51.148;14.068;2022-12-07T02:15:56;97992.38;;;-0.61;100.00
52319;BME280;38258;51.148;14.068;2022-12-07T02:18:36;97949.31;;;-0.89;100.00
52319;BME280;38258;51.148;14.068;2022-12-07T02:21:08;97982.88;;;-0.70;100.00
52319;BME280;38258;51.148;14.068;2022-12-07T02:23:41;97971.84;;;-0.58;100.00
52319;BME280;38258;51.148;14.068;2022-12-07T02:26:43;97970.09;;;-0.65;100.00
52319;BME280;38258;51.148;14.068;2022-12-07T02:29:21;97951.22;;;-0.69;100.00
52319;BME280;38258;51.148;14.068;2022-12-07T02:31:55;97973.66;;;-0.51;100.00
52319;BME280;38258;51.148;14.068;2022-12-07T02:34:32;97955.50;;;-0.69;100.00
52319;BME280;38258;51.148;14.068;2022-12-07T02:37:03;97961.66;;;-0.52;100.00
52319;BME280;38258;51.148;14.068;2022-12-07T02:39:40;97968.47;;;-0.52;100.00
52319;BME280;38258;51.148;14.068;2022-12-07T02:42:13;97965.84;;;-0.60;100.00
52319;BME280;38258;51.148;14.068;2022-12-07T02:44:43;97962.50;;;-0.51;100.00
52319;BME280;38258;51.148;14.068;2022-12-07T02:47:14;97953.06;;;-0.52;100.00
52319;BME280;38258;51.148;14.068;2022-12-07T02:49:42;97955.59;;;-0.59;100.00
52319;BME280;38258;51.148;14.068;2022-12-07T02:52:09;97951.31;;;-0.58;100.00
52319;BME280;38258;51.148;14.068;2022-12-07T02:54:36;97953.06;;;-0.52;100.00
52319;BME280;38258;51.148;14.068;2022-12-07T02:57:11;97944.50;;;-0.56;100.00
52319;BME280;38258;51.148;14.068;2022-12-07T02:59:53;97952.22;;;-0.51;100.00
52319;BME280;38258;51.148;14.068;2022-12-07T03:02:30;97951.31;;;-0.57;100.00
52319;BME280;38258;51.148;14.068;2022-12-07T03:05:09;97946.13;;;-0.61;100.00
52319;BME280;38258;51.148;14.068;2022-12-07T03:07:45;97943.56;;;-0.64;100.00
52319;BME280;38258;51.148;14.068;2022-12-07T03:10:20;97947.00;;;-0.62;100.00
52319;BME280;38258;51.148;14.068;2022-12-07T03:12:58;97937.47;;;-0.73;100.00
52319;BME280;38258;51.148;14.068;2022-12-07T03:15:32;97936.66;;;-0.72;100.00
52319;BME280;38258;51.148;14.068;2022-12-07T03:18:02;97901.38;;;-0.90;100.00
52319;BME280;38258;51.148;14.068;2022-12-07T03:20:32;97923.78;;;-0.73;100.00
52319;BME280;38258;51.148;14.068;2022-12-07T03:23:01;97919.47;;;-0.77;100.00
52319;BME280;38258;51.148;14.068;2022-12-07T03:25:30;97934.94;;;-0.68;100.00
52319;BME280;38258;51.148;14.068;2022-12-07T03:28:02;97926.34;;;-0.73;100.00
52319;BME280;38258;51.148;14.068;2022-12-07T03:30:37;97924.59;;;-0.76;100.00
52319;BME280;38258;51.148;14.068;2022-12-07T03:33:08;97891.00;;;-0.99;100.00
52319;BME280;38258;51.148;14.068;2022-12-07T03:35:40;97922.81;;;-0.86;100.00
52319;BME280;38258;51.148;14.068;2022-12-07T03:38:14;97914.25;;;-0.83;100.00
52319;BME280;38258;51.148;14.068;2022-12-07T03:40:47;97934.72;;;-0.91;100.00
52319;BME280;38258;51.148;14.068;2022-12-07T03:43:16;97927.03;;;-0.93;100.00
52319;BME280;38258;51.148;14.068;2022-12-07T03:45:55;97924.47;;;-0.90;100.00
52319;BME280;38258;51.148;14.068;2022-12-07T03:48:32;97917.66;;;-0.88;100.00
52319;BME280;38258;51.148;14.068;2022-12-07T03:51:06;97921.03;;;-0.92;100.00
52319;BME280;38258;51.148;14.068;2022-12-07T03:53:41;97909.84;;;-0.98;100.00
52319;BME280;38258;51.148;14.068;2022-12-07T03:56:11;97928.75;;;-0.90;100.00
52319;BME280;38258;51.148;14.068;2022-12-07T03:58:39;97924.50;;;-0.87;100.00
52319;BME280;38258;51.148;14.068;2022-12-07T04:01:08;97925.34;;;-0.88;100.00
52319;BME280;38258;51.148;14.068;2022-12-07T04:03:35;97918.50;;;-0.87;100.00
52319;BME280;38258;51.148;14.068;2022-12-07T04:06:02;97913.25;;;-0.98;100.00
52319;BME280;38258;51.148;14.068;2022-12-07T04:08:28;97921.00;;;-0.96;100.00
52319;BME280;38258;51.148;14.068;2022-12-07T04:10:55;97912.38;;;-1.02;100.00
52319;BME280;38258;51.148;14.068;2022-12-07T04:13:22;97914.09;;;-1.02;100.00
52319;BME280;38258;51.148;14.068;2022-12-07T04:15:48;97921.78;;;-1.02;100.00
52319;BME280;38258;51.148;14.068;2022-12-07T04:18:16;97907.13;;;-1.12;100.00
52319;BME280;38258;51.148;14.068;2022-12-07T04:20:43;97910.63;;;-1.07;100.00
52319;BME280;38258;51.148;14.068;2022-12-07T04:23:10;97896.78;;;-1.22;100.00
52319;BME280;38258;51.148;14.068;2022-12-07T04:25:36;97908.84;;;-1.13;100.00
52319;BME280;38258;51.148;14.068;2022-12-07T04:28:03;97888.13;;;-1.30;100.00
52319;BME280;38258;51.148;14.068;2022-12-07T04:30:30;97900.97;;;-1.29;100.00
52319;BME280;38258;51.148;14.068;2022-12-07T04:32:56;97892.38;;;-1.31;100.00
52319;BME280;38258;51.148;14.068;2022-12-07T04:35:24;97887.22;;;-1.35;100.00
52319;BME280;38258;51.148;14.068;2022-12-07T04:37:51;97891.53;;;-1.31;100.00
52319;BME280;38258;51.148;14.068;2022-12-07T04:40:18;97853.66;;;-1.51;100.00
52319;BME280;38258;51.148;14.068;2022-12-07T04:42:44;97891.50;;;-1.33;100.00
52319;BME280;38258;51.148;14.068;2022-12-07T04:45:11;97879.41;;;-1.45;100.00
52319;BME280;38258;51.148;14.068;2022-12-07T04:47:38;97879.47;;;-1.40;100.00
52319;BME280;38258;51.148;14.068;2022-12-07T04:50:05;97851.09;;;-1.51;100.00
52319;BME280;38258;51.148;14.068;2022-12-07T04:52:33;97880.34;;;-1.36;100.00
52319;BME280;38258;51.148;14.068;2022-12-07T04:55:00;97869.16;;;-1.45;100.00
52319;BME280;38258;51.148;14.068;2022-12-07T04:57:27;97869.97;;;-1.47;100.00
52319;BME280;38258;51.148;14.068;2022-12-07T04:59:53;97862.28;;;-1.49;100.00
52319;BME280;38258;51.148;14.068;2022-12-07T05:02:20;97858.75;;;-1.57;100.00
52319;BME280;38258;51.148;14.068;2022-12-07T05:04:46;97862.09;;;-1.64;100.00
52319;BME280;38258;51.148;14.068;2022-12-07T05:07:13;97857.06;;;-1.55;100.00
52319;BME280;38258;51.148;14.068;2022-12-07T05:09:41;97853.56;;;-1.62;100.00
52319;BME280;38258;51.148;14.068;2022-12-07T05:12:08;97857.09;;;-1.53;100.00
52319;BME280;38258;51.148;14.068;2022-12-07T05:14:34;97865.72;;;-1.47;100.00
52319;BME280;38258;51.148;14.068;2022-12-07T05:17:01;97678.16;;;-2.57;100.00
52319;BME280;38258;51.148;14.068;2022-12-07T05:19:30;97675.59;;;-2.57;100.00
52319;BME280;38258;51.148;14.068;2022-12-07T05:21:59;97755.44;;;-2.21;100.00
52319;BME280;38258;51.148;14.068;2022-12-07T05:24:26;97865.63;;;-1.54;100.00
52319;BME280;38258;51.148;14.068;2022-12-07T05:26:56;97771.06;;;-2.01;100.00
52319;BME280;38258;51.148;14.068;2022-12-07T05:29:24;97783.81;;;-2.05;100.00
52319;BME280;38258;51.148;14.068;2022-12-07T05:31:51;97764.19;;;-2.05;100.00
52319;BME280;38258;51.148;14.068;2022-12-07T05:34:18;97840.72;;;-1.65;100.00
52319;BME280;38258;51.148;14.068;2022-12-07T05:36:47;97734.88;;;-2.25;100.00
52319;BME280;38258;51.148;14.068;2022-12-07T05:39:15;97638.66;;;-2.76;100.00
52319;BME280;38258;51.148;14.068;2022-12-07T05:41:42;97800.34;;;-1.80;100.00
52319;BME280;38258;51.148;14.068;2022-12-07T05:44:28;97698.00;;;-2.40;100.00
52319;BME280;38258;51.148;14.068;2022-12-07T05:46:56;97667.25;;;-2.42;100.00
52319;BME280;38258;51.148;14.068;2022-12-07T05:49:23;97725.69;;;-2.09;100.00
52319;BME280;38258;51.148;14.068;2022-12-07T05:51:50;97713.78;;;-2.04;100.00
52319;BME280;38258;51.148;14.068;2022-12-07T05:54:17;97737.88;;;-1.90;100.00
52319;BME280;38258;51.148;14.068;2022-12-07T05:56:43;97834.13;;;-1.39;100.00
52319;BME280;38258;51.148;14.068;2022-12-07T05:59:10;97747.44;;;-1.75;100.00
52319;BME280;38258;51.148;14.068;2022-12-07T06:01:53;97749.22;;;-1.69;100.00
52319;BME280;38258;51.148;14.068;2022-12-07T06:04:21;97601.47;;;-2.47;100.00
52319;BME280;38258;51.148;14.068;2022-12-07T06:06:48;97716.59;;;-1.82;100.00
52319;BME280;38258;51.148;14.068;2022-12-07T06:09:16;97658.03;;;-2.25;100.00
52319;BME280;38258;51.148;14.068;2022-12-07T06:11:43;97811.31;;;-1.11;100.00
52319;BME280;38258;51.148;14.068;2022-12-07T06:14:28;97694.31;;;-1.87;100.00
52319;BME280;38258;51.148;14.068;2022-12-07T06:16:56;97711.59;;;-1.70;100.00
52319;BME280;38258;51.148;14.068;2022-12-07T06:19:23;97671.28;;;-1.83;100.00
52319;BME280;38258;51.148;14.068;2022-12-07T06:21:50;97608.34;;;-2.40;100.00
52319;BME280;38258;51.148;14.068;2022-12-07T06:24:17;97724.47;;;-1.62;100.00
52319;BME280;38258;51.148;14.068;2022-12-07T06:26:44;97642.81;;;-2.10;100.00
52319;BME280;38258;51.148;14.068;2022-12-07T06:29:11;97649.00;;;-1.88;100.00
52319;BME280;38258;51.148;14.068;2022-12-07T06:31:54;97802.06;;;-0.92;100.00
52319;BME280;38258;51.148;14.068;2022-12-07T06:34:26;97706.59;;;-1.54;100.00
52319;BME280;38258;51.148;14.068;2022-12-07T06:36:53;97590.63;;;-2.20;100.00
52319;BME280;38258;51.148;14.068;2022-12-07T06:39:22;97731.56;;;-1.35;100.00
52319;BME280;38258;51.148;14.068;2022-12-07T06:41:50;97710.16;;;-1.37;100.00
52319;BME280;38258;51.148;14.068;2022-12-07T06:44:27;97792.69;;;-0.89;100.00
52319;BME280;38258;51.148;14.068;2022-12-07T06:46:54;97796.97;;;-0.88;100.00
52319;BME280;38258;51.148;14.068;2022-12-07T06:49:24;97698.00;;;-1.61;100.00
52319;BME280;38258;51.148;14.068;2022-12-07T06:51:51;97643.19;;;-1.73;100.00
52319;BME280;38258;51.148;14.068;2022-12-07T06:54:18;97599.38;;;-1.97;100.00
52319;BME280;38258;51.148;14.068;2022-12-07T06:56:46;97602.78;;;-2.00;100.00
52319;BME280;38258;51.148;14.068;2022-12-07T06:59:15;97634.53;;;-1.81;100.00
52319;BME280;38258;51.148;14.068;2022-12-07T07:01:50;97638.88;;;-1.77;100.00
52319;BME280;38258;51.148;14.068;2022-12-07T07:04:17;97813.38;;;-0.68;100.00
52319;BME280;38258;51.148;14.068;2022-12-07T07:06:53;97664.56;;;-1.72;100.00
52319;BME280;38258;51.148;14.068;2022-12-07T07:09:39;97800.47;;;-0.75;100.00
52319;BME280;38258;51.148;14.068;2022-12-07T07:12:06;97608.75;;;-2.03;100.00
52319;BME280;38258;51.148;14.068;2022-12-07T07:14:35;97802.16;;;-0.83;100.00
52319;BME280;38258;51.148;14.068;2022-12-07T07:17:02;97789.22;;;-0.92;100.00
52319;BME280;38258;51.148;14.068;2022-12-07T07:19:29;97600.03;;;-2.19;100.00
52319;BME280;38258;51.148;14.068;2022-12-07T07:21:57;97756.44;;;-1.27;100.00
52319;BME280;38258;51.148;14.068;2022-12-07T07:24:24;97797.69;;;-1.04;100.00
52319;BME280;38258;51.148;14.068;2022-12-07T07:26:51;97744.41;;;-1.33;100.00
52319;BME280;38258;51.148;14.068;2022-12-07T07:29:18;97811.44;;;-0.97;100.00
52319;BME280;38258;51.148;14.068;2022-12-07T07:31:45;97740.84;;;-1.49;100.00
52319;BME280;38258;51.148;14.068;2022-12-07T07:34:12;97674.63;;;-1.92;100.00
52319;BME280;38258;51.148;14.068;2022-12-07T07:36:40;97666.81;;;-2.05;100.00
52319;BME280;38258;51.148;14.068;2022-12-07T07:39:09;97579.22;;;-2.53;100.00
52319;BME280;38258;51.148;14.068;2022-12-07T07:41:38;97757.13;;;-1.44;100.00
52319;BME280;38258;51.148;14.068;2022-12-07T07:44:11;97661.66;;;-2.08;100.00
52319;BME280;38258;51.148;14.068;2022-12-07T07:46:40;97599.03;;;-2.35;100.00
52319;BME280;38258;51.148;14.068;2022-12-07T07:49:08;97757.09;;;-1.49;100.00
52319;BME280;38258;51.148;14.068;2022-12-07T07:51:35;97634.28;;;-2.09;100.00
52319;BME280;38258;51.148;14.068;2022-12-07T07:54:04;97782.06;;;-1.32;100.00
52319;BME280;38258;51.148;14.068;2022-12-07T07:56:33;97731.41;;;-1.52;100.00
52319;BME280;38258;51.148;14.068;2022-12-07T07:58:59;97616.22;;;-2.23;100.00
52319;BME280;38258;51.148;14.068;2022-12-07T08:01:26;97816.50;;;-1.07;100.00
52319;BME280;38258;51.148;14.068;2022-12-07T08:03:53;97621.41;;;-2.18;100.00
52319;BME280;38258;51.148;14.068;2022-12-07T08:06:20;97666.09;;;-1.91;100.00
52319;BME280;38258;51.148;14.068;2022-12-07T08:08:47;97791.56;;;-1.20;100.00
52319;BME280;38258;51.148;14.068;2022-12-07T08:11:14;97672.97;;;-1.84;100.00
52319;BME280;38258;51.148;14.068;2022-12-07T08:13:44;97701.44;;;-1.59;100.00
52319;BME280;38258;51.148;14.068;2022-12-07T08:16:13;97694.56;;;-1.59;100.00
52319;BME280;38258;51.148;14.068;2022-12-07T08:18:41;97634.50;;;-1.90;100.00
52319;BME280;38258;51.148;14.068;2022-12-07T08:21:11;97738.50;;;-1.21;100.00
52319;BME280;38258;51.148;14.068;2022-12-07T08:23:38;97637.97;;;-1.82;100.00
52319;BME280;38258;51.148;14.068;2022-12-07T08:26:07;97663.78;;;-1.62;100.00
52319;BME280;38258;51.148;14.068;2022-12-07T08:28:34;97718.00;;;-1.18;100.00
52319;BME280;38258;51.148;14.068;2022-12-07T08:31:04;97633.69;;;-1.80;100.00
52319;BME280;38258;51.148;14.068;2022-12-07T08:33:31;97735.19;;;-1.09;100.00
52319;BME280;38258;51.148;14.068;2022-12-07T08:36:00;97624.38;;;-1.72;100.00
52319;BME280;38258;51.148;14.068;2022-12-07T08:38:27;97709.50;;;-1.14;100.00
52319;BME280;38258;51.148;14.068;2022-12-07T08:40:54;97812.63;;;-0.52;100.00
52319;BME280;38258;51.148;14.068;2022-12-07T08:43:22;97701.78;;;-1.16;100.00
52319;BME280;38258;51.148;14.068;2022-12-07T08:45:52;97747.34;;;-0.87;100.00
52319;BME280;38258;51.148;14.068;2022-12-07T08:48:22;97694.88;;;-1.23;100.00
52319;BME280;38258;51.148;14.068;2022-12-07T08:50:50;97703.56;;;-1.07;100.00
52319;BME280;38258;51.148;14.068;2022-12-07T08:53:18;97736.22;;;-0.82;100.00
52319;BME280;38258;51.148;14.068;2022-12-07T08:55:45;97677.84;;;-1.11;100.00
52319;BME280;38258;51.148;14.068;2022-12-07T08:58:13;97658.13;;;-1.19;100.00
52319;BME280;38258;51.148;14.068;2022-12-07T09:00:40;97754.34;;;-0.59;100.00
52319;BME280;38258;51.148;14.068;2022-12-07T09:03:07;97646.94;;;-1.29;100.00
52319;BME280;38258;51.148;14.068;2022-12-07T09:05:35;97736.34;;;-0.65;100.00
52319;BME280;38258;51.148;14.068;2022-12-07T09:08:02;97671.03;;;-1.08;100.00
52319;BME280;38258;51.148;14.068;2022-12-07T09:10:29;97687.28;;;-1.06;100.00
52319;BME280;38258;51.148;14.068;2022-12-07T09:12:56;97815.41;;;-0.19;100.00
52319;BME280;38258;51.148;14.068;2022-12-07T09:15:26;97665.88;;;-1.12;100.00
52319;BME280;38258;51.148;14.068;2022-12-07T09:17:53;97654.69;;;-1.22;100.00
52319;BME280;38258;51.148;14.068;2022-12-07T09:20:20;97781.88;;;-0.39;100.00
52319;BME280;38258;51.148;14.068;2022-12-07T09:22:48;97703.72;;;-0.80;100.00
52319;BME280;38258;51.148;14.068;2022-12-07T09:25:15;97712.38;;;-0.64;100.00
52319;BME280;38258;51.148;14.068;2022-12-07T09:27:42;97818.91;;;-0.02;100.00
52319;BME280;38258;51.148;14.068;2022-12-07T09:30:09;97733.03;;;-0.47;100.00
52319;BME280;38258;51.148;14.068;2022-12-07T09:32:36;97737.34;;;-0.35;100.00
52319;BME280;38258;51.148;14.068;2022-12-07T09:35:03;97801.84;;;0.16;100.00
52319;BME280;38258;51.148;14.068;2022-12-07T09:37:30;97656.66;;;-0.81;100.00
52319;BME280;38258;51.148;14.068;2022-12-07T09:40:02;97786.34;;;-0.03;100.00
52319;BME280;38258;51.148;14.068;2022-12-07T09:42:32;97619.78;;;-0.95;100.00
52319;BME280;38258;51.148;14.068;2022-12-07T09:45:02;97729.69;;;-0.27;100.00
52319;BME280;38258;51.148;14.068;2022-12-07T09:47:32;97714.19;;;-0.43;100.00
52319;BME280;38258;51.148;14.068;2022-12-07T09:50:03;97784.72;;;0.23;100.00
52319;BME280;38258;51.148;14.068;2022-12-07T09:52:31;97721.16;;;-0.17;100.00
52319;BME280;38258;51.148;14.068;2022-12-07T09:54:58;97729.75;;;-0.07;100.00
52319;BME280;38258;51.148;14.068;2022-12-07T09:57:29;97651.63;;;-0.56;100.00
52319;BME280;38258;51.148;14.068;2022-12-07T10:00:03;97771.03;;;0.35;100.00
52319;BME280;38258;51.148;14.068;2022-12-07T10:02:35;97799.41;;;0.67;100.00
52319;BME280;38258;51.148;14.068;2022-12-07T10:05:07;97613.13;;;-0.44;100.00
52319;BME280;38258;51.148;14.068;2022-12-07T10:07:37;97798.56;;;0.84;100.00
52319;BME280;38258;51.148;14.068;2022-12-07T10:10:04;97606.31;;;-0.32;100.00
52319;BME280;38258;51.148;14.068;2022-12-07T10:12:53;97587.47;;;-0.30;100.00
52319;BME280;38258;51.148;14.068;2022-12-07T10:15:42;97768.53;;;0.66;100.00
52319;BME280;38258;51.148;14.068;2022-12-07T10:18:25;97703.31;;;0.39;100.00
52319;BME280;38258;51.148;14.068;2022-12-07T10:21:13;97790.88;;;0.93;100.00
52319;BME280;38258;51.148;14.068;2022-12-07T10:24:14;97703.31;;;0.45;100.00
52319;BME280;38258;51.148;14.068;2022-12-07T10:27:13;97642.38;;;0.16;100.00
52319;BME280;38258;51.148;14.068;2022-12-07T10:30:12;97611.50;;;-0.12;100.00
52319;BME280;38258;51.148;14.068;2022-12-07T10:32:46;97749.66;;;0.78;100.00
52319;BME280;38258;51.148;14.068;2022-12-07T10:35:22;97606.38;;;0.08;100.00
52319;BME280;38258;51.148;14.068;2022-12-07T10:37:57;97597.81;;;0.19;100.00
52319;BME280;38258;51.148;14.068;2022-12-07T10:40:31;97579.81;;;0.11;100.00
52319;BME280;38258;51.148;14.068;2022-12-07T10:43:02;97779.72;;;1.36;100.00
52319;BME280;38258;51.148;14.068;2022-12-07T10:45:32;97584.94;;;0.05;100.00
52319;BME280;38258;51.148;14.068;2022-12-07T10:48:07;97779.72;;;1.27;100.00
52319;BME280;38258;51.148;14.068;2022-12-07T10:50:49;97614.97;;;0.34;100.00
52319;BME280;38258;51.148;14.068;2022-12-07T10:53:33;97780.53;;;1.35;100.00
52319;BME280;38258;51.148;14.068;2022-12-07T10:56:16;97588.38;;;0.21;100.00
52319;BME280;38258;51.148;14.068;2022-12-07T10:58:57;97669.88;;;0.70;100.00
52319;BME280;38258;51.148;14.068;2022-12-07T11:01:34;97600.41;;;0.31;100.00
52319;BME280;38258;51.148;14.068;2022-12-07T11:04:20;97575.53;;;0.13;100.00
52319;BME280;38258;51.148;14.068;2022-12-07T11:06:54;97604.66;;;0.41;100.00
52319;BME280;38258;51.148;14.068;2022-12-07T11:09:56;97748.78;;;1.27;100.00
52319;BME280;38258;51.148;14.068;2022-12-07T11:12:34;97693.91;;;0.81;100.00
52319;BME280;38258;51.148;14.068;2022-12-07T11:15:11;97596.09;;;0.18;100.00
52319;BME280;38258;51.148;14.068;2022-12-07T11:17:47;97768.56;;;1.25;100.00
52319;BME280;38258;51.148;14.068;2022-12-07T11:20:29;97757.38;;;1.13;100.00
52319;BME280;38258;51.148;14.068;2022-12-07T11:23:03;97761.69;;;1.04;100.00
52319;BME280;38258;51.148;14.068;2022-12-07T11:25:41;97758.25;;;1.11;100.00
52319;BME280;38258;51.148;14.068;2022-12-07T11:28:23;97755.69;;;1.12;100.00
52319;BME280;38258;51.148;14.068;2022-12-07T11:30:59;97741.94;;;1.04;100.00
52319;BME280;38258;51.148;14.068;2022-12-07T11:33:37;97758.25;;;1.06;100.00
52319;BME280;38258;51.148;14.068;2022-12-07T11:36:17;97771.13;;;0.83;100.00
52319;BME280;38258;51.148;14.068;2022-12-07T11:38:54;97744.50;;;0.84;100.00
52319;BME280;38258;51.148;14.068;2022-12-07T11:41:26;97761.69;;;0.97;100.00
52319;BME280;38258;51.148;14.068;2022-12-07T11:44:00;97755.69;;;0.94;100.00
52319;BME280;38258;51.148;14.068;2022-12-07T11:46:42;97747.97;;;1.02;100.00
52319;BME280;38258;51.148;14.068;2022-12-07T11:49:15;97753.97;;;1.08;100.00
52319;BME280;38258;51.148;14.068;2022-12-07T11:51:49;97751.38;;;1.16;100.00
52319;BME280;38258;51.148;14.068;2022-12-07T11:54:20;97742.78;;;1.22;100.00
52319;BME280;38258;51.148;14.068;2022-12-07T11:56:49;97747.91;;;1.26;100.00
52319;BME280;38258;51.148;14.068;2022-12-07T11:59:21;97740.22;;;1.20;100.00
52319;BME280;38258;51.148;14.068;2022-12-07T12:01:55;97729.88;;;1.31;100.00
52319;BME280;38258;51.148;14.068;2022-12-07T12:04:33;97725.59;;;1.22;100.00
52319;BME280;38258;51.148;14.068;2022-12-07T12:07:03;97729.88;;;1.22;100.00
52319;BME280;38258;51.148;14.068;2022-12-07T12:09:35;97746.25;;;1.16;100.00
52319;BME280;38258;51.148;14.068;2022-12-07T12:12:20;97743.66;;;1.04;100.00
52319;BME280;38258;51.148;14.068;2022-12-07T12:15:00;97735.94;;;1.08;100.00
52319;BME280;38258;51.148;14.068;2022-12-07T12:17:52;97731.63;;;1.12;100.00
52319;BME280;38258;51.148;14.068;2022-12-07T12:20:29;97738.50;;;1.15;100.00
52319;BME280;38258;51.148;14.068;2022-12-07T12:23:01;97730.75;;;1.22;100.00
52319;BME280;38258;51.148;14.068;2022-12-07T12:25:38;97732.47;;;1.20;100.00
52319;BME280;38258;51.148;14.068;2022-12-07T12:28:19;97729.06;;;1.15;100.00
52319;BME280;38258;51.148;14.068;2022-12-07T12:31:04;97732.47;;;1.19;100.00
52319;BME280;38258;51.148;14.068;2022-12-07T12:33:32;97734.19;;;1.12;100.00
52319;BME280;38258;51.148;14.068;2022-12-07T12:36:26;97740.22;;;1.09;100.00
52319;BME280;38258;51.148;14.068;2022-12-07T12:39:12;97743.66;;;1.15;100.00
52319;BME280;38258;51.148;14.068;2022-12-07T12:41:57;97711.88;;;1.12;100.00
52319;BME280;38258;51.148;14.068;2022-12-07T12:47:53;97742.78;;;0.52;100.00
52319;BME280;38258;51.148;14.068;2022-12-07T12:50:23;97741.91;;;0.39;100.00
52319;BME280;38258;51.148;14.068;2022-12-07T12:53:15;97741.88;;;0.26;100.00
52319;BME280;38258;51.148;14.068;2022-12-07T12:58:42;97726.25;;;-0.26;100.00
52319;BME280;38258;51.148;14.068;2022-12-07T13:01:44;97742.63;;;-0.06;100.00
52319;BME280;38258;51.148;14.068;2022-12-07T13:04:25;97733.19;;;-0.08;100.00
52319;BME280;38258;51.148;14.068;2022-12-07T13:06:54;97732.38;;;0.08;100.00
52319;BME280;38258;51.148;14.068;2022-12-07T13:09:24;97722.13;;;0.10;100.00
52319;BME280;38258;51.148;14.068;2022-12-07T13:11:59;97732.38;;;0.11;100.00
52319;BME280;38258;51.148;14.068;2022-12-07T13:14:42;97733.25;;;0.13;100.00